Cushman Dam, Washington
Current Conditions -  °F | °C
As of 11:53 PM on Saturday 25 Oct 2014 (Local Time) from KSHN Reporting Station
Scattered Clouds Scattered Clouds  
Wind Chill: 44°   Ceiling: Unl
Heat Index: 49°   Visibility: 10mi
Dew Point: 46°   Wind: 12mph
Humidity: 90%   Direction: 230°SW
Pressure: 29.73"   Gusts: NA
Location:  47.4532°N, 123.173°W
Report Text: KSHN 260653Z AUTO 23010KT 10SM SCT035 09/08 A2973 RMK AO2 RAE12 SLP071 P0001 T00940078 TSNO
Loading
Personal Weather Stations






























Interactive Weather Map
Tropical Storm Tracking
New forecast layout! Learn more

10-Day Weather Forecast

Advertisements
Track Severe Weather on mobile